Gerry Bordelon — WDH6434 — position and weather

sailwx.info

Track history (hours):
 
Tides and Currents Weather Stations Pressure Air Temp Water Temp Dewpoint Dewpoint Depression Visibility Wind Speed Wind Dir Waves Ship Positions

Gerry Bordelon

Owner: Bordelon Marine Inc., Lockport, LA. More information available from US FCC via Universal Licensing System and Coast Guard Vessel Documentation Center.

Last reported at 2017-Nov-07 02:12 UTC. Time now 2017-Nov-20 20:59 UTC.
Position N 29°25' W 090°44'.
Warning: this ship's position is 13 days out of date.

Length 49 m; draft 9 m.

MMSI: 367637920.

Date/timePositionNaut miles runAvg speedWind from/ knotsBaromVisibWave heightAir tempDewpointWater temp
2017-Nov-07 02:12N 29°25' W 090°44'2 7.4
2017-Nov-07 01:59N 29°26' W 090°43'4 7.5
2017-Nov-07 01:30N 29°30' W 090°43'3 6.2
2017-Nov-07 01:00N 29°33' W 090°42'0 0.1
2017-Nov-07 00:28N 29°33' W 090°42'0 0.0
2017-Nov-06 23:58N 29°33' W 090°42'0 0.0
2017-Nov-06 23:28N 29°33' W 090°42'0 0.0
2017-Nov-06 22:58N 29°33' W 090°42'0 0.0
2017-Nov-06 22:28N 29°33' W 090°42'0 0.0
2017-Nov-06 21:58N 29°33' W 090°42'0 0.0
2017-Nov-06 21:28N 29°33' W 090°42'0 0.0
2017-Nov-06 20:58N 29°33' W 090°42'0 0.0
2017-Nov-06 20:28N 29°33' W 090°42'0 0.0
2017-Nov-06 02:29N 29°33' W 090°42'0 0.1
2017-Nov-06 01:59N 29°33' W 090°42'0 0.1
2017-Nov-06 01:29N 29°33' W 090°42'0 0.0
2017-Nov-06 00:56N 29°33' W 090°42'0 0.0
2017-Nov-06 00:29N 29°33' W 090°42'0 0.0
2017-Nov-05 23:59N 29°33' W 090°42'0 0.0
2017-Nov-05 23:29N 29°33' W 090°42'0 0.0
2017-Nov-05 22:59N 29°33' W 090°42'0 0.0
2017-Nov-05 22:29N 29°33' W 090°42'0 0.0
2017-Nov-05 21:59N 29°33' W 090°42'0 0.0
2017-Nov-05 21:29N 29°33' W 090°42'0 0.0
2017-Nov-05 20:59N 29°33' W 090°42'0 0.0
2017-Nov-05 20:29N 29°33' W 090°42'0 0.0
2017-Nov-05 19:59N 29°33' W 090°42'0 0.0
2017-Nov-05 19:29N 29°33' W 090°42'0 0.0
2017-Nov-05 18:59N 29°33' W 090°42'0 0.0
2017-Nov-05 18:29N 29°33' W 090°42'0 0.0
2017-Nov-05 17:59N 29°33' W 090°42'0 0.1
2017-Nov-05 17:29N 29°33' W 090°42'0 0.1
2017-Nov-05 16:59N 29°33' W 090°42'1 2.2
2017-Nov-05 16:30N 29°32' W 090°42'4 7.4
2017-Nov-05 16:00N 29°28' W 090°43'4 7.7
2017-Nov-05 15:30N 29°24' W 090°44'  
Track history (hours):
 
Tides and Currents Weather Stations Pressure Air Temp Water Temp Dewpoint Dewpoint Depression Visibility Wind Speed Wind Dir Waves Ship Positions

Gerry Bordelon

Owner: Bordelon Marine Inc., Lockport, LA. More information available from US FCC via Universal Licensing System and Coast Guard Vessel Documentation Center.

Last reported at 2017-Nov-07 02:12 UTC. Time now 2017-Nov-20 20:59 UTC.
Position N 29°25' W 090°44'.
Warning: this ship's position is 13 days out of date.

Length 49 m; draft 9 m.

MMSI: 367637920.

Date/timePositionNaut miles runAvg speedWind from/ knotsBaromVisibWave heightAir tempDewpointWater temp
2017-Nov-07 02:12N 29°25' W 090°44'2 7.4
2017-Nov-07 01:59N 29°26' W 090°43'4 7.5
2017-Nov-07 01:30N 29°30' W 090°43'3 6.2
2017-Nov-07 01:00N 29°33' W 090°42'0 0.1
2017-Nov-07 00:28N 29°33' W 090°42'0 0.0
2017-Nov-06 23:58N 29°33' W 090°42'0 0.0
2017-Nov-06 23:28N 29°33' W 090°42'0 0.0
2017-Nov-06 22:58N 29°33' W 090°42'0 0.0
2017-Nov-06 22:28N 29°33' W 090°42'0 0.0
2017-Nov-06 21:58N 29°33' W 090°42'0 0.0
2017-Nov-06 21:28N 29°33' W 090°42'0 0.0
2017-Nov-06 20:58N 29°33' W 090°42'0 0.0
2017-Nov-06 20:28N 29°33' W 090°42'0 0.0
2017-Nov-06 02:29N 29°33' W 090°42'0 0.1
2017-Nov-06 01:59N 29°33' W 090°42'0 0.1
2017-Nov-06 01:29N 29°33' W 090°42'0 0.0
2017-Nov-06 00:56N 29°33' W 090°42'0 0.0
2017-Nov-06 00:29N 29°33' W 090°42'0 0.0
2017-Nov-05 23:59N 29°33' W 090°42'0 0.0
2017-Nov-05 23:29N 29°33' W 090°42'0 0.0
2017-Nov-05 22:59N 29°33' W 090°42'0 0.0
2017-Nov-05 22:29N 29°33' W 090°42'0 0.0
2017-Nov-05 21:59N 29°33' W 090°42'0 0.0
2017-Nov-05 21:29N 29°33' W 090°42'0 0.0
2017-Nov-05 20:59N 29°33' W 090°42'0 0.0
2017-Nov-05 20:29N 29°33' W 090°42'0 0.0
2017-Nov-05 19:59N 29°33' W 090°42'0 0.0
2017-Nov-05 19:29N 29°33' W 090°42'0 0.0
2017-Nov-05 18:59N 29°33' W 090°42'0 0.0
2017-Nov-05 18:29N 29°33' W 090°42'0 0.0
2017-Nov-05 17:59N 29°33' W 090°42'0 0.1
2017-Nov-05 17:29N 29°33' W 090°42'0 0.1
2017-Nov-05 16:59N 29°33' W 090°42'1 2.2
2017-Nov-05 16:30N 29°32' W 090°42'4 7.4
2017-Nov-05 16:00N 29°28' W 090°43'4 7.7
2017-Nov-05 15:30N 29°24' W 090°44'  

Dump ship's entire track history